sensor_id;sensor_type;location;lat;lon;timestamp;pressure;altitude;pressure_sealevel;temperature;humidity
35489;BME280;21602;55.670;37.578;2023-07-28T00:01:44;97688.00;;;22.45;100.00
35489;BME280;21602;55.670;37.578;2023-07-28T00:04:10;97679.44;;;22.43;100.00
35489;BME280;21602;55.670;37.578;2023-07-28T00:06:36;97682.94;;;22.44;100.00
35489;BME280;21602;55.670;37.578;2023-07-28T00:09:02;97689.94;;;22.45;100.00
35489;BME280;21602;55.670;37.578;2023-07-28T00:11:28;97703.22;;;22.46;100.00
35489;BME280;21602;55.670;37.578;2023-07-28T00:13:53;97716.09;;;22.49;100.00
35489;BME280;21602;55.670;37.578;2023-07-28T00:16:19;97716.53;;;22.52;100.00
35489;BME280;21602;55.670;37.578;2023-07-28T00:18:45;97719.25;;;22.52;100.00
35489;BME280;21602;55.670;37.578;2023-07-28T00:21:11;97710.66;;;22.49;100.00
35489;BME280;21602;55.670;37.578;2023-07-28T00:23:37;97720.31;;;22.47;100.00
35489;BME280;21602;55.670;37.578;2023-07-28T00:26:03;97725.38;;;22.48;100.00
35489;BME280;21602;55.670;37.578;2023-07-28T00:28:29;97731.53;;;22.45;100.00
35489;BME280;21602;55.670;37.578;2023-07-28T00:30:54;97737.22;;;22.40;100.00
35489;BME280;21602;55.670;37.578;2023-07-28T00:33:20;97735.91;;;22.34;100.00
35489;BME280;21602;55.670;37.578;2023-07-28T00:35:46;97740.03;;;22.28;100.00
35489;BME280;21602;55.670;37.578;2023-07-28T00:38:12;97739.50;;;22.22;100.00
35489;BME280;21602;55.670;37.578;2023-07-28T00:40:38;97733.50;;;22.17;100.00
35489;BME280;21602;55.670;37.578;2023-07-28T00:43:04;97723.38;;;22.14;100.00
35489;BME280;21602;55.670;37.578;2023-07-28T00:45:32;97715.88;;;22.11;100.00
35489;BME280;21602;55.670;37.578;2023-07-28T00:47:59;97707.28;;;22.09;100.00
35489;BME280;21602;55.670;37.578;2023-07-28T00:50:26;97704.81;;;22.04;100.00
35489;BME280;21602;55.670;37.578;2023-07-28T00:52:55;97696.94;;;21.98;100.00
35489;BME280;21602;55.670;37.578;2023-07-28T00:55:21;97697.63;;;21.95;100.00
35489;BME280;21602;55.670;37.578;2023-07-28T00:57:47;97695.16;;;21.90;100.00
35489;BME280;21602;55.670;37.578;2023-07-28T01:00:13;97685.44;;;21.89;100.00
35489;BME280;21602;55.670;37.578;2023-07-28T01:02:39;97692.81;;;21.89;100.00
35489;BME280;21602;55.670;37.578;2023-07-28T01:05:06;97702.06;;;21.88;100.00
35489;BME280;21602;55.670;37.578;2023-07-28T01:10:30;97692.00;;;21.88;100.00
35489;BME280;21602;55.670;37.578;2023-07-28T01:12:56;97689.28;;;21.88;100.00
35489;BME280;21602;55.670;37.578;2023-07-28T01:15:22;97693.22;;;21.91;100.00
35489;BME280;21602;55.670;37.578;2023-07-28T01:17:48;97690.63;;;21.94;100.00
35489;BME280;21602;55.670;37.578;2023-07-28T01:20:14;97682.53;;;21.98;100.00
35489;BME280;21602;55.670;37.578;2023-07-28T01:22:48;97672.13;;;22.00;100.00
35489;BME280;21602;55.670;37.578;2023-07-28T01:25:25;97675.28;;;22.02;100.00
35489;BME280;21602;55.670;37.578;2023-07-28T01:27:56;97672.22;;;22.04;100.00
35489;BME280;21602;55.670;37.578;2023-07-28T01:30:23;97671.50;;;22.07;100.00
35489;BME280;21602;55.670;37.578;2023-07-28T01:32:54;97662.66;;;22.10;100.00
35489;BME280;21602;55.670;37.578;2023-07-28T01:35:22;97664.00;;;22.16;100.00
35489;BME280;21602;55.670;37.578;2023-07-28T01:37:48;97662.16;;;22.20;100.00
35489;BME280;21602;55.670;37.578;2023-07-28T01:40:17;97663.03;;;22.24;100.00
35489;BME280;21602;55.670;37.578;2023-07-28T01:42:43;97671.28;;;22.28;100.00
35489;BME280;21602;55.670;37.578;2023-07-28T01:45:09;97661.91;;;22.25;100.00
35489;BME280;21602;55.670;37.578;2023-07-28T01:47:35;97651.81;;;22.26;100.00
35489;BME280;21602;55.670;37.578;2023-07-28T01:50:01;97646.38;;;22.26;100.00
35489;BME280;21602;55.670;37.578;2023-07-28T01:52:29;97647.88;;;22.23;100.00
35489;BME280;21602;55.670;37.578;2023-07-28T01:54:55;97656.38;;;22.21;100.00
35489;BME280;21602;55.670;37.578;2023-07-28T01:57:21;97657.19;;;22.22;100.00
35489;BME280;21602;55.670;37.578;2023-07-28T01:59:47;97661.13;;;22.24;100.00
35489;BME280;21602;55.670;37.578;2023-07-28T02:02:13;97661.91;;;22.25;100.00
35489;BME280;21602;55.670;37.578;2023-07-28T02:04:39;97659.53;;;22.23;100.00
35489;BME280;21602;55.670;37.578;2023-07-28T02:07:05;97656.72;;;22.20;100.00
35489;BME280;21602;55.670;37.578;2023-07-28T02:09:31;97656.63;;;22.16;100.00
35489;BME280;21602;55.670;37.578;2023-07-28T02:11:58;97646.03;;;22.11;100.00
35489;BME280;21602;55.670;37.578;2023-07-28T02:14:24;97643.53;;;22.06;100.00
35489;BME280;21602;55.670;37.578;2023-07-28T02:16:50;97654.41;;;22.06;100.00
35489;BME280;21602;55.670;37.578;2023-07-28T02:19:36;97653.63;;;22.06;100.00
35489;BME280;21602;55.670;37.578;2023-07-28T02:22:02;97651.28;;;22.04;100.00
35489;BME280;21602;55.670;37.578;2023-07-28T02:24:27;97665.28;;;22.06;100.00
35489;BME280;21602;55.670;37.578;2023-07-28T02:26:53;97662.25;;;22.08;100.00
35489;BME280;21602;55.670;37.578;2023-07-28T02:29:20;97659.84;;;22.06;100.00
35489;BME280;21602;55.670;37.578;2023-07-28T02:31:46;97661.09;;;22.09;100.00
35489;BME280;21602;55.670;37.578;2023-07-28T02:34:12;97667.66;;;22.08;100.00
35489;BME280;21602;55.670;37.578;2023-07-28T02:36:37;97665.06;;;22.11;100.00
35489;BME280;21602;55.670;37.578;2023-07-28T02:39:03;97675.66;;;22.16;100.00
35489;BME280;21602;55.670;37.578;2023-07-28T02:41:29;97673.31;;;22.15;100.00
35489;BME280;21602;55.670;37.578;2023-07-28T02:43:55;97692.69;;;22.13;100.00
35489;BME280;21602;55.670;37.578;2023-07-28T02:46:21;97696.19;;;22.14;100.00
35489;BME280;21602;55.670;37.578;2023-07-28T02:48:48;97691.41;;;22.11;100.00
35489;BME280;21602;55.670;37.578;2023-07-28T02:51:13;97684.31;;;22.06;100.00
35489;BME280;21602;55.670;37.578;2023-07-28T02:53:39;97683.41;;;22.02;100.00
35489;BME280;21602;55.670;37.578;2023-07-28T02:56:05;97698.59;;;22.03;100.00
35489;BME280;21602;55.670;37.578;2023-07-28T02:58:31;97689.41;;;22.08;100.00
35489;BME280;21602;55.670;37.578;2023-07-28T03:00:57;97676.94;;;22.07;100.00
35489;BME280;21602;55.670;37.578;2023-07-28T03:03:31;97667.91;;;22.03;100.00
35489;BME280;21602;55.670;37.578;2023-07-28T03:05:57;97655.13;;;22.03;100.00
35489;BME280;21602;55.670;37.578;2023-07-28T03:08:24;97682.63;;;22.02;100.00
35489;BME280;21602;55.670;37.578;2023-07-28T03:10:59;97698.69;;;22.07;100.00
35489;BME280;21602;55.670;37.578;2023-07-28T03:13:28;97719.50;;;22.15;100.00
35489;BME280;21602;55.670;37.578;2023-07-28T03:15:54;97726.25;;;22.21;100.00
35489;BME280;21602;55.670;37.578;2023-07-28T03:18:25;97734.34;;;22.33;100.00
35489;BME280;21602;55.670;37.578;2023-07-28T03:20:51;97721.97;;;22.36;100.00
35489;BME280;21602;55.670;37.578;2023-07-28T03:23:17;97687.44;;;22.36;100.00
35489;BME280;21602;55.670;37.578;2023-07-28T03:25:43;97686.63;;;22.36;100.00
35489;BME280;21602;55.670;37.578;2023-07-28T03:28:09;97701.03;;;22.36;100.00
35489;BME280;21602;55.670;37.578;2023-07-28T03:30:35;97712.06;;;22.43;100.00
35489;BME280;21602;55.670;37.578;2023-07-28T03:33:01;97721.63;;;22.53;100.00
35489;BME280;21602;55.670;37.578;2023-07-28T03:35:27;97729.59;;;22.62;100.00
35489;BME280;21602;55.670;37.578;2023-07-28T03:38:02;97776.00;;;22.69;100.00
35489;BME280;21602;55.670;37.578;2023-07-28T03:40:28;97811.34;;;22.69;99.72
35489;BME280;21602;55.670;37.578;2023-07-28T03:42:57;97823.75;;;22.66;99.70
35489;BME280;21602;55.670;37.578;2023-07-28T03:45:22;97861.03;;;22.66;99.80
35489;BME280;21602;55.670;37.578;2023-07-28T03:47:48;97915.22;;;22.59;99.92
35489;BME280;21602;55.670;37.578;2023-07-28T03:50:14;97941.78;;;22.49;100.00
35489;BME280;21602;55.670;37.578;2023-07-28T03:52:40;97934.63;;;22.29;100.00
35489;BME280;21602;55.670;37.578;2023-07-28T03:55:06;97888.88;;;22.07;100.00
35489;BME280;21602;55.670;37.578;2023-07-28T03:57:32;97848.88;;;21.91;100.00
35489;BME280;21602;55.670;37.578;2023-07-28T03:59:58;97830.22;;;21.78;100.00
35489;BME280;21602;55.670;37.578;2023-07-28T04:02:24;97799.94;;;21.63;100.00
35489;BME280;21602;55.670;37.578;2023-07-28T04:04:56;97732.66;;;21.57;100.00
35489;BME280;21602;55.670;37.578;2023-07-28T04:07:22;97698.28;;;21.48;100.00
35489;BME280;21602;55.670;37.578;2023-07-28T04:09:48;97687.00;;;21.46;100.00
35489;BME280;21602;55.670;37.578;2023-07-28T04:12:14;97647.50;;;21.49;100.00
35489;BME280;21602;55.670;37.578;2023-07-28T04:14:40;97611.00;;;21.46;100.00
35489;BME280;21602;55.670;37.578;2023-07-28T04:17:06;97562.28;;;21.38;100.00
35489;BME280;21602;55.670;37.578;2023-07-28T04:19:33;97564.88;;;21.34;100.00
35489;BME280;21602;55.670;37.578;2023-07-28T04:22:02;97576.09;;;21.33;100.00
35489;BME280;21602;55.670;37.578;2023-07-28T04:24:29;97550.88;;;21.32;100.00
35489;BME280;21602;55.670;37.578;2023-07-28T04:26:55;97536.41;;;21.28;100.00
35489;BME280;21602;55.670;37.578;2023-07-28T04:29:21;97548.31;;;21.23;100.00
35489;BME280;21602;55.670;37.578;2023-07-28T04:31:47;97574.66;;;21.23;100.00
35489;BME280;21602;55.670;37.578;2023-07-28T04:34:17;97610.59;;;21.32;100.00
35489;BME280;21602;55.670;37.578;2023-07-28T04:37:03;97614.81;;;21.45;100.00
35489;BME280;21602;55.670;37.578;2023-07-28T04:39:40;97614.06;;;21.61;100.00
35489;BME280;21602;55.670;37.578;2023-07-28T04:42:08;97615.56;;;21.74;100.00
35489;BME280;21602;55.670;37.578;2023-07-28T04:44:38;97611.91;;;21.82;100.00
35489;BME280;21602;55.670;37.578;2023-07-28T04:47:07;97609.13;;;21.94;100.00
35489;BME280;21602;55.670;37.578;2023-07-28T04:49:33;97605.59;;;22.10;100.00
35489;BME280;21602;55.670;37.578;2023-07-28T04:52:07;97619.81;;;22.19;100.00
35489;BME280;21602;55.670;37.578;2023-07-28T04:54:33;97615.94;;;22.36;100.00
35489;BME280;21602;55.670;37.578;2023-07-28T04:56:59;97620.50;;;22.47;100.00
35489;BME280;21602;55.670;37.578;2023-07-28T04:59:31;97626.44;;;22.53;100.00
35489;BME280;21602;55.670;37.578;2023-07-28T05:01:57;97629.47;;;22.67;100.00
35489;BME280;21602;55.670;37.578;2023-07-28T05:04:26;97629.81;;;22.82;100.00
35489;BME280;21602;55.670;37.578;2023-07-28T05:06:52;97646.53;;;22.99;100.00
35489;BME280;21602;55.670;37.578;2023-07-28T05:09:18;97646.47;;;23.15;100.00
35489;BME280;21602;55.670;37.578;2023-07-28T05:11:44;97656.16;;;23.32;100.00
35489;BME280;21602;55.670;37.578;2023-07-28T05:14:09;97654.13;;;23.48;100.00
35489;BME280;21602;55.670;37.578;2023-07-28T05:16:37;97658.22;;;23.58;100.00
35489;BME280;21602;55.670;37.578;2023-07-28T05:19:06;97671.41;;;23.56;100.00
35489;BME280;21602;55.670;37.578;2023-07-28T05:21:53;97674.16;;;23.37;99.95
35489;BME280;21602;55.670;37.578;2023-07-28T05:24:24;97676.38;;;23.31;100.00
35489;BME280;21602;55.670;37.578;2023-07-28T05:26:50;97678.66;;;23.29;100.00
35489;BME280;21602;55.670;37.578;2023-07-28T05:29:17;97684.25;;;23.36;100.00
35489;BME280;21602;55.670;37.578;2023-07-28T05:31:45;97680.94;;;23.46;100.00
35489;BME280;21602;55.670;37.578;2023-07-28T05:34:20;97681.22;;;23.61;99.47
35489;BME280;21602;55.670;37.578;2023-07-28T05:36:46;97673.78;;;23.77;99.19
35489;BME280;21602;55.670;37.578;2023-07-28T05:39:12;97668.59;;;23.91;97.76
35489;BME280;21602;55.670;37.578;2023-07-28T05:41:42;97679.63;;;23.98;97.29
35489;BME280;21602;55.670;37.578;2023-07-28T05:44:10;97672.78;;;24.08;95.47
35489;BME280;21602;55.670;37.578;2023-07-28T05:46:36;97667.97;;;24.01;93.88
35489;BME280;21602;55.670;37.578;2023-07-28T05:49:02;97680.59;;;24.10;94.77
35489;BME280;21602;55.670;37.578;2023-07-28T05:51:28;97679.03;;;24.09;94.26
35489;BME280;21602;55.670;37.578;2023-07-28T05:53:54;97671.25;;;24.11;93.05
35489;BME280;21602;55.670;37.578;2023-07-28T05:56:20;97678.34;;;24.15;92.68
35489;BME280;21602;55.670;37.578;2023-07-28T05:58:47;97684.28;;;24.21;91.79
35489;BME280;21602;55.670;37.578;2023-07-28T06:01:13;97682.72;;;24.20;91.31
35489;BME280;21602;55.670;37.578;2023-07-28T06:03:58;97696.47;;;24.27;90.93
35489;BME280;21602;55.670;37.578;2023-07-28T06:06:26;97703.13;;;24.30;89.88
35489;BME280;21602;55.670;37.578;2023-07-28T06:08:53;97712.94;;;24.34;89.97
35489;BME280;21602;55.670;37.578;2023-07-28T06:11:20;97698.97;;;24.36;89.51
35489;BME280;21602;55.670;37.578;2023-07-28T06:13:46;97708.53;;;24.26;88.41
35489;BME280;21602;55.670;37.578;2023-07-28T06:16:14;97687.13;;;24.28;88.97
35489;BME280;21602;55.670;37.578;2023-07-28T06:18:41;97676.66;;;24.07;88.58
35489;BME280;21602;55.670;37.578;2023-07-28T06:21:12;97683.63;;;24.05;88.79
35489;BME280;21602;55.670;37.578;2023-07-28T06:23:38;97677.19;;;24.16;88.33
35489;BME280;21602;55.670;37.578;2023-07-28T06:26:03;97676.22;;;24.28;87.55
35489;BME280;21602;55.670;37.578;2023-07-28T06:28:30;97693.94;;;24.38;86.57
35489;BME280;21602;55.670;37.578;2023-07-28T06:30:57;97715.53;;;24.46;86.08
35489;BME280;21602;55.670;37.578;2023-07-28T06:33:25;97738.06;;;24.43;85.36
35489;BME280;21602;55.670;37.578;2023-07-28T06:35:51;97763.97;;;24.34;85.82
35489;BME280;21602;55.670;37.578;2023-07-28T06:38:18;97797.50;;;24.15;86.47
35489;BME280;21602;55.670;37.578;2023-07-28T06:40:44;97835.09;;;23.86;87.02
35489;BME280;21602;55.670;37.578;2023-07-28T06:43:10;97837.47;;;23.52;87.70
35489;BME280;21602;55.670;37.578;2023-07-28T06:45:36;97919.28;;;23.24;89.02
35489;BME280;21602;55.670;37.578;2023-07-28T06:48:02;97943.84;;;22.96;90.75
35489;BME280;21602;55.670;37.578;2023-07-28T06:50:29;97965.97;;;22.67;92.98
35489;BME280;21602;55.670;37.578;2023-07-28T06:52:55;97930.84;;;22.34;95.09
35489;BME280;21602;55.670;37.578;2023-07-28T06:55:25;97855.59;;;22.10;95.75
35489;BME280;21602;55.670;37.578;2023-07-28T06:57:51;97848.44;;;21.89;97.10
35489;BME280;21602;55.670;37.578;2023-07-28T07:00:21;97834.19;;;21.80;98.36
35489;BME280;21602;55.670;37.578;2023-07-28T07:02:47;97814.84;;;21.69;98.68
35489;BME280;21602;55.670;37.578;2023-07-28T07:05:13;97794.88;;;21.62;98.68
35489;BME280;21602;55.670;37.578;2023-07-28T07:07:40;97783.47;;;21.56;99.29
35489;BME280;21602;55.670;37.578;2023-07-28T07:10:07;97782.56;;;21.52;99.49
35489;BME280;21602;55.670;37.578;2023-07-28T07:12:35;97751.13;;;21.51;100.00
35489;BME280;21602;55.670;37.578;2023-07-28T07:15:01;97739.91;;;21.53;100.00
35489;BME280;21602;55.670;37.578;2023-07-28T07:17:30;97759.47;;;21.58;100.00
35489;BME280;21602;55.670;37.578;2023-07-28T07:19:57;97747.66;;;21.66;100.00
35489;BME280;21602;55.670;37.578;2023-07-28T07:22:22;97732.69;;;21.72;100.00
35489;BME280;21602;55.670;37.578;2023-07-28T07:24:49;97739.13;;;21.80;100.00
35489;BME280;21602;55.670;37.578;2023-07-28T07:27:15;97748.25;;;21.88;100.00
35489;BME280;21602;55.670;37.578;2023-07-28T07:29:41;97740.66;;;21.93;100.00
35489;BME280;21602;55.670;37.578;2023-07-28T07:32:07;97756.00;;;22.02;100.00
35489;BME280;21602;55.670;37.578;2023-07-28T07:34:35;97765.94;;;22.10;100.00
35489;BME280;21602;55.670;37.578;2023-07-28T07:37:02;97777.88;;;22.21;100.00
35489;BME280;21602;55.670;37.578;2023-07-28T07:39:29;97765.03;;;22.34;100.00
35489;BME280;21602;55.670;37.578;2023-07-28T07:41:56;97751.69;;;22.44;100.00
35489;BME280;21602;55.670;37.578;2023-07-28T07:44:22;97764.88;;;22.58;100.00
35489;BME280;21602;55.670;37.578;2023-07-28T07:46:48;97774.00;;;22.66;99.71
35489;BME280;21602;55.670;37.578;2023-07-28T07:49:14;97779.25;;;22.74;99.16
35489;BME280;21602;55.670;37.578;2023-07-28T07:51:40;97775.66;;;22.86;98.63
35489;BME280;21602;55.670;37.578;2023-07-28T07:54:06;97770.84;;;22.95;98.49
35489;BME280;21602;55.670;37.578;2023-07-28T07:56:32;97773.38;;;23.04;97.62
35489;BME280;21602;55.670;37.578;2023-07-28T07:58:58;97781.41;;;23.16;97.01
35489;BME280;21602;55.670;37.578;2023-07-28T08:01:24;97768.50;;;23.29;97.01
35489;BME280;21602;55.670;37.578;2023-07-28T08:03:49;97775.91;;;23.48;96.52
35489;BME280;21602;55.670;37.578;2023-07-28T08:06:15;97776.91;;;23.75;96.04
35489;BME280;21602;55.670;37.578;2023-07-28T08:08:41;97772.00;;;24.04;95.24
35489;BME280;21602;55.670;37.578;2023-07-28T08:11:10;97777.84;;;24.25;93.77
35489;BME280;21602;55.670;37.578;2023-07-28T08:13:37;97775.88;;;24.45;92.77
35489;BME280;21602;55.670;37.578;2023-07-28T08:16:03;97773.59;;;24.70;92.07
35489;BME280;21602;55.670;37.578;2023-07-28T08:18:29;97778.19;;;24.89;90.96
35489;BME280;21602;55.670;37.578;2023-07-28T08:20:58;97781.16;;;24.80;90.26
35489;BME280;21602;55.670;37.578;2023-07-28T08:23:25;97772.31;;;24.64;89.58
35489;BME280;21602;55.670;37.578;2023-07-28T08:25:51;97771.22;;;24.68;89.67
35489;BME280;21602;55.670;37.578;2023-07-28T08:28:17;97782.97;;;24.72;89.49
35489;BME280;21602;55.670;37.578;2023-07-28T08:30:58;97794.44;;;24.82;88.96
35489;BME280;21602;55.670;37.578;2023-07-28T08:33:25;97802.69;;;24.85;88.84
35489;BME280;21602;55.670;37.578;2023-07-28T08:35:51;97802.06;;;24.95;88.60
35489;BME280;21602;55.670;37.578;2023-07-28T08:38:17;97803.31;;;25.01;88.22
35489;BME280;21602;55.670;37.578;2023-07-28T08:40:44;97810.09;;;25.08;87.46
35489;BME280;21602;55.670;37.578;2023-07-28T08:43:10;97810.72;;;25.24;87.31
35489;BME280;21602;55.670;37.578;2023-07-28T08:45:36;97803.25;;;25.21;85.77
35489;BME280;21602;55.670;37.578;2023-07-28T08:48:04;97805.63;;;25.22;85.08
35489;BME280;21602;55.670;37.578;2023-07-28T08:50:29;97803.31;;;25.24;84.91
35489;BME280;21602;55.670;37.578;2023-07-28T08:52:58;97805.72;;;25.29;84.21
35489;BME280;21602;55.670;37.578;2023-07-28T08:55:25;97805.97;;;25.47;84.42
35489;BME280;21602;55.670;37.578;2023-07-28T08:57:51;97813.25;;;25.66;83.77
35489;BME280;21602;55.670;37.578;2023-07-28T09:00:17;97821.91;;;25.72;82.88
35489;BME280;21602;55.670;37.578;2023-07-28T09:02:44;97832.75;;;25.91;82.51
35489;BME280;21602;55.670;37.578;2023-07-28T09:05:20;97834.59;;;26.14;81.29
35489;BME280;21602;55.670;37.578;2023-07-28T09:07:46;97833.41;;;26.15;80.83
35489;BME280;21602;55.670;37.578;2023-07-28T09:10:13;97827.81;;;26.04;80.78
35489;BME280;21602;55.670;37.578;2023-07-28T09:12:47;97829.22;;;25.91;80.59
35489;BME280;21602;55.670;37.578;2023-07-28T09:15:14;97840.72;;;25.73;80.93
35489;BME280;21602;55.670;37.578;2023-07-28T09:17:45;97851.31;;;25.52;80.80
35489;BME280;21602;55.670;37.578;2023-07-28T09:20:17;97855.94;;;25.21;82.04
35489;BME280;21602;55.670;37.578;2023-07-28T09:22:44;97858.53;;;24.91;83.03
35489;BME280;21602;55.670;37.578;2023-07-28T09:25:15;97869.50;;;24.72;83.85
35489;BME280;21602;55.670;37.578;2023-07-28T09:27:48;97881.50;;;24.67;84.61
35489;BME280;21602;55.670;37.578;2023-07-28T09:30:16;97889.75;;;24.71;84.85
35489;BME280;21602;55.670;37.578;2023-07-28T09:32:46;97906.28;;;24.59;85.29
35489;BME280;21602;55.670;37.578;2023-07-28T09:35:14;97909.41;;;24.38;86.09
35489;BME280;21602;55.670;37.578;2023-07-28T09:37:42;97912.03;;;24.15;86.53
35489;BME280;21602;55.670;37.578;2023-07-28T09:40:10;97902.06;;;24.03;87.48
35489;BME280;21602;55.670;37.578;2023-07-28T09:42:43;97901.47;;;23.94;88.35
35489;BME280;21602;55.670;37.578;2023-07-28T09:45:11;97892.56;;;23.97;88.17
35489;BME280;21602;55.670;37.578;2023-07-28T09:47:37;97893.72;;;23.96;88.24
35489;BME280;21602;55.670;37.578;2023-07-28T09:50:05;97888.19;;;23.92;88.60
35489;BME280;21602;55.670;37.578;2023-07-28T09:52:42;97900.97;;;23.88;88.99
35489;BME280;21602;55.670;37.578;2023-07-28T09:55:10;97904.38;;;23.85;88.95
35489;BME280;21602;55.670;37.578;2023-07-28T09:57:51;97891.91;;;23.84;89.34
35489;BME280;21602;55.670;37.578;2023-07-28T10:00:18;97881.00;;;23.84;89.52
35489;BME280;21602;55.670;37.578;2023-07-28T10:02:46;97878.00;;;23.89;89.58
35489;BME280;21602;55.670;37.578;2023-07-28T10:05:14;97890.91;;;23.92;89.97
35489;BME280;21602;55.670;37.578;2023-07-28T10:07:45;97896.16;;;24.01;89.61
35489;BME280;21602;55.670;37.578;2023-07-28T10:10:13;97902.47;;;24.05;89.70
35489;BME280;21602;55.670;37.578;2023-07-28T10:12:46;97909.56;;;24.10;89.57
35489;BME280;21602;55.670;37.578;2023-07-28T10:15:20;97907.34;;;24.15;90.08
35489;BME280;21602;55.670;37.578;2023-07-28T10:17:56;97912.38;;;24.13;90.48
35489;BME280;21602;55.670;37.578;2023-07-28T10:20:37;97910.56;;;24.01;90.77
35489;BME280;21602;55.670;37.578;2023-07-28T10:23:15;97897.09;;;23.89;91.70
35489;BME280;21602;55.670;37.578;2023-07-28T10:25:44;97889.66;;;23.70;92.85
35489;BME280;21602;55.670;37.578;2023-07-28T10:28:29;97892.31;;;23.67;93.75
35489;BME280;21602;55.670;37.578;2023-07-28T10:30:58;97877.97;;;23.70;93.58
35489;BME280;21602;55.670;37.578;2023-07-28T10:33:33;97868.38;;;23.76;93.94
35489;BME280;21602;55.670;37.578;2023-07-28T10:36:11;97856.13;;;23.86;94.20
35489;BME280;21602;55.670;37.578;2023-07-28T10:38:38;97838.28;;;23.88;93.52
35489;BME280;21602;55.670;37.578;2023-07-28T10:41:17;97819.53;;;23.87;93.50
35489;BME280;21602;55.670;37.578;2023-07-28T10:43:45;97824.06;;;23.79;94.08
35489;BME280;21602;55.670;37.578;2023-07-28T10:46:15;97821.56;;;23.70;94.08
35489;BME280;21602;55.670;37.578;2023-07-28T10:48:44;97824.09;;;23.63;94.32
35489;BME280;21602;55.670;37.578;2023-07-28T10:51:12;97838.06;;;23.62;94.33
35489;BME280;21602;55.670;37.578;2023-07-28T10:53:38;97819.00;;;23.62;94.48
35489;BME280;21602;55.670;37.578;2023-07-28T10:56:05;97815.78;;;23.56;94.44
35489;BME280;21602;55.670;37.578;2023-07-28T10:58:34;97810.53;;;23.47;94.30
35489;BME280;21602;55.670;37.578;2023-07-28T11:01:03;97802.34;;;23.47;93.89
35489;BME280;21602;55.670;37.578;2023-07-28T11:03:29;97789.31;;;23.57;93.51
35489;BME280;21602;55.670;37.578;2023-07-28T11:05:55;97776.31;;;23.66;93.07
35489;BME280;21602;55.670;37.578;2023-07-28T11:08:22;97774.00;;;23.68;92.85
35489;BME280;21602;55.670;37.578;2023-07-28T11:10:48;97778.59;;;23.64;92.63
35489;BME280;21602;55.670;37.578;2023-07-28T11:13:14;97790.19;;;23.61;92.88
35489;BME280;21602;55.670;37.578;2023-07-28T11:15:41;97815.03;;;23.59;92.12
35489;BME280;21602;55.670;37.578;2023-07-28T11:18:07;97821.84;;;23.49;91.29
35489;BME280;21602;55.670;37.578;2023-07-28T11:20:33;97836.84;;;23.24;91.39
35489;BME280;21602;55.670;37.578;2023-07-28T11:23:01;97861.88;;;23.14;91.76
35489;BME280;21602;55.670;37.578;2023-07-28T11:25:32;97881.97;;;23.09;91.73
35489;BME280;21602;55.670;37.578;2023-07-28T11:28:08;97893.22;;;23.08;92.14
35489;BME280;21602;55.670;37.578;2023-07-28T11:30:36;97914.81;;;23.00;92.38
35489;BME280;21602;55.670;37.578;2023-07-28T11:33:03;97926.38;;;22.97;93.08
35489;BME280;21602;55.670;37.578;2023-07-28T11:35:29;97918.66;;;22.99;93.18
35489;BME280;21602;55.670;37.578;2023-07-28T11:37:55;97889.78;;;22.95;93.07
35489;BME280;21602;55.670;37.578;2023-07-28T11:40:22;97887.84;;;22.95;92.74
35489;BME280;21602;55.670;37.578;2023-07-28T11:42:51;97888.47;;;22.89;93.24
35489;BME280;21602;55.670;37.578;2023-07-28T11:45:19;97885.03;;;22.92;92.65
35489;BME280;21602;55.670;37.578;2023-07-28T11:48:03;97883.03;;;23.05;92.97
35489;BME280;21602;55.670;37.578;2023-07-28T11:50:34;97897.00;;;23.19;92.44
35489;BME280;21602;55.670;37.578;2023-07-28T11:53:00;97917.44;;;23.29;91.89
35489;BME280;21602;55.670;37.578;2023-07-28T11:55:26;97923.88;;;23.36;91.70
35489;BME280;21602;55.670;37.578;2023-07-28T11:57:53;97929.47;;;23.43;91.14
35489;BME280;21602;55.670;37.578;2023-07-28T12:00:28;97929.66;;;23.50;90.59
35489;BME280;21602;55.670;37.578;2023-07-28T12:03:07;97939.66;;;23.62;90.36
35489;BME280;21602;55.670;37.578;2023-07-28T12:05:38;97935.97;;;23.70;90.19
35489;BME280;21602;55.670;37.578;2023-07-28T12:08:04;97942.50;;;23.66;89.62
35489;BME280;21602;55.670;37.578;2023-07-28T12:10:30;97947.22;;;23.69;88.66
35489;BME280;21602;55.670;37.578;2023-07-28T12:13:08;97947.66;;;23.71;88.07
35489;BME280;21602;55.670;37.578;2023-07-28T12:15:40;97953.53;;;23.73;88.53
35489;BME280;21602;55.670;37.578;2023-07-28T12:18:12;97961.16;;;23.83;88.18
35489;BME280;21602;55.670;37.578;2023-07-28T12:23:13;97968.75;;;24.09;87.70
35489;BME280;21602;55.670;37.578;2023-07-28T12:25:40;97973.28;;;24.21;87.49
35489;BME280;21602;55.670;37.578;2023-07-28T12:28:07;97972.16;;;24.22;86.67
35489;BME280;21602;55.670;37.578;2023-07-28T12:30:34;97970.25;;;24.07;86.28
35489;BME280;21602;55.670;37.578;2023-07-28T12:33:01;97984.81;;;23.95;86.63
35489;BME280;21602;55.670;37.578;2023-07-28T12:35:28;97986.50;;;23.68;86.73
35489;BME280;21602;55.670;37.578;2023-07-28T12:38:02;97992.38;;;23.22;87.38
35489;BME280;21602;55.670;37.578;2023-07-28T12:40:33;98006.91;;;22.86;87.47
35489;BME280;21602;55.670;37.578;2023-07-28T12:43:02;98008.41;;;22.56;88.00
35489;BME280;21602;55.670;37.578;2023-07-28T12:45:31;98016.75;;;22.22;87.90
35489;BME280;21602;55.670;37.578;2023-07-28T12:47:58;98025.47;;;21.91;87.26
35489;BME280;21602;55.670;37.578;2023-07-28T12:50:24;98010.75;;;21.68;87.65
35489;BME280;21602;55.670;37.578;2023-07-28T12:52:50;98007.91;;;21.52;87.81
35489;BME280;21602;55.670;37.578;2023-07-28T12:55:17;98007.34;;;21.46;87.89